• Join FlightAware (Why Join?)
  • Login
  • US Flag GB Flag 
15:15 EDT


 

Airport Tracker/Info


-or-


 

Live Flight TrackerFlight Track Log ✈ SWA1969 ✈ 16-Apr-2013 ✈ KMCI - KMDW

Flight Track Log - Related Links

Times and Time Zones

All times are in EDT time to prevent confusion due to time zone crossing. See the SWA1969 flight status page for this flight to view local times or setup timezone preferences in your user account.

Time Position Orientation Groundspeed Altitude Reporting Facility
EDT Latitude Longitude Course Direction KTS MPH feet Rate Location/Type
11:07 39.3167 -94.7167 47° Northeast 148 170 2,000  Level Kansas City TRACON
11:08 39.3331 -94.7086 21° North 144 166 2,600 1,560 Climbing Kansas City Center
11:09 39.3783 -94.6736 31° Northeast 194 223 4,500 2,220 Climbing Kansas City Center
11:10 39.4350 -94.6028 44° Northeast 256 295 7,300 2,460 Climbing Kansas City Center
11:11 39.4928 -94.5225 47° Northeast 320 368 9,700 2,460 Climbing Kansas City Center
11:12 39.5678 -94.4175 47° Northeast 358 412 12,400 2,580 Climbing Kansas City Center
11:13 39.6967 -94.2081 47° Northeast  Level FlightAware Approximate
11:13 39.6369 -94.3175 48° Northeast 388 447 15,000  Level Kansas City Center
11:14 39.7242 -94.1964 47° Northeast 410 472 17,700 2,640 Climbing Kansas City Center
11:15 39.8158 -94.0786 45° Northeast 429 494 20,600 2,460 Climbing Kansas City Center
11:16 39.8728 -93.9400 62° Northeast 439 505 22,800 2,040 Climbing Kansas City Center
11:17 39.9058 -93.7839 75° East 450 518 24,900 1,860 Climbing Kansas City Center
11:18 39.9392 -93.6231 75° East 460 529 26,700 1,680 Climbing Kansas City Center
11:19 39.9744 -93.4600 74° East 470 541 28,500 1,680 Climbing Kansas City Center
11:20 40.0100 -93.2961 74° East 473 544 30,300 1,200 Climbing Kansas City Center
11:21 40.0514 -93.1014 74° East 470 541 31,000 300 Climbing Kansas City Center
11:22 40.0814 -92.9514 75° East 470 541 31,000  Level Kansas City Center
11:23 40.1186 -92.7675 75° East 470 541 31,000  Level Kansas City Center
11:24 40.1500 -92.6086 75° East 470 541 31,000  Level Kansas City Center
11:25 40.1883 -92.4264 75° East 467 537 31,000  Level Kansas City Center
11:26 40.2219 -92.2583 75° East 476 548 31,000  Level Kansas City Center
11:27 40.2542 -92.0944 76° East 473 544 31,000  Level Kansas City Center
11:28 40.2858 -91.9306 76° East 471 542 31,000  Level Kansas City Center
11:29 40.3244 -91.7317 76° East 472 543 31,000  Level Kansas City Center
11:30 40.3569 -91.5669 75° East 471 542 31,000  Level Kansas City Center
11:31 40.3808 -91.4344 77° East 471 542 31,000  Level Chicago Center
11:32 40.4119 -91.2756 76° East 469 540 31,000  Level Chicago Center
11:33 40.4433 -91.1086 76° East 471 542 31,000  Level Chicago Center
11:34 40.4808 -90.9061 76° East 476 548 31,000  Level Chicago Center
11:35 40.5117 -90.7375 76° East 475 547 31,000  Level Chicago Center
11:36 40.5417 -90.5694 77° East 474 545 31,000 -120 Level Chicago Center
11:37 40.5719 -90.3997 77° East 475 547 30,800 -1,080 Descending Chicago Center
11:38 40.6058 -90.2156 76° East 471 542 28,800 -1,980 Descending Chicago Center
11:39 40.6342 -90.0547 77° East 458 527 26,800 -1,800 Descending Chicago Center
11:40 40.6603 -89.8958 78° East 449 517 25,200 -1,680 Descending Chicago Center
11:41 40.6950 -89.7453 73° East 437 503 23,400 -2,160 Descending Chicago Center
11:42 40.7597 -89.6086 58° Northeast 439 505 20,800 -1,920 Descending Chicago Center
11:43 40.8292 -89.4814 54° Northeast 421 484 19,500 -1,140 Descending Chicago Center
11:44 40.9008 -89.3683 50° Northeast 403 464 18,500 -1,620 Descending Chicago Center
11:45 40.9853 -89.2333 50° Northeast 398 458 16,300 -2,100 Descending Chicago Center
11:46 41.0556 -89.1214 50° Northeast 402 463 14,300 -2,220 Descending Chicago Center
11:48 41.1269 -89.0056 51° Northeast 405 466 11,800 -1,980 Descending Chicago Center
11:49 41.1950 -88.8944 51° Northeast 387 445 10,300 -900 Descending Chicago Center
11:50 41.2561 -88.7947 51° Northeast 353 406 10,000 -900 Descending Chicago Center
11:51 41.3233 -88.6853 51° Northeast 322 371 8,500 -1,440 Descending Chicago Center
11:52 41.3761 -88.5992 51° Northeast 307 353 7,100 -1,260 Descending Chicago Center
11:53 41.4275 -88.5133 51° Northeast 299 344 6,000 -540 Descending Chicago Center
11:54 41.4775 -88.4317 51° Northeast 289 333 6,000  Level Chicago Center
11:55 41.5089 -88.3367 66° East 287 330 6,000 -120 Level Chicago Center
11:56 41.5247 -88.2283 79° East 291 335 5,800 -540 Descending Chicago Center
11:57 41.5425 -88.1239 77° East 288 331 5,000 -420 Descending Chicago Center
11:58 41.5586 -88.0197 78° East 284 327 5,000 -360 Level Chicago Center
11:59 41.5742 -87.9158 79° East 283 326 4,300 -600 Descending Chicago Center
12:00 41.5897 -87.8183 78° East 277 319 3,800 -600 Descending Chicago Center
12:01 41.6111 -87.7231 73° East 243 280 3,100 -660 Descending Chicago Center
12:02 41.6353 -87.6600 63° Northeast 216 249 2,500 -480 Descending Chicago Center
12:02 41.6500 -87.6500 27° Northeast 181 208 2,500  Level Chicago TRACON
12:03 41.6833 -87.6333 20° North 183 211 2,500 -180 Level Chicago TRACON
12:04 41.7167 -87.6667 323° Northwest 146 168 2,200 -600 Descending Chicago TRACON
12:05 41.7500 -87.7000 323° Northwest 139 160 1,400 -840 Descending Chicago TRACON